sensor_id;sensor_type;location;lat;lon;timestamp;P1;durP1;ratioP1;P2;durP2;ratioP2
82920;SDS011;72696;52.372;9.722;2024-02-14T00:01:27;4.05;;;2.28;;
82920;SDS011;72696;52.372;9.722;2024-02-14T00:03:53;4.07;;;2.33;;
82920;SDS011;72696;52.372;9.722;2024-02-14T00:06:19;4.13;;;2.58;;
82920;SDS011;72696;52.372;9.722;2024-02-14T00:08:44;4.35;;;2.20;;
82920;SDS011;72696;52.372;9.722;2024-02-14T00:11:09;3.63;;;2.42;;
82920;SDS011;72696;52.372;9.722;2024-02-14T00:13:35;6.13;;;2.53;;
82920;SDS011;72696;52.372;9.722;2024-02-14T00:16:01;4.07;;;2.40;;
82920;SDS011;72696;52.372;9.722;2024-02-14T00:18:27;3.35;;;2.00;;
82920;SDS011;72696;52.372;9.722;2024-02-14T00:20:53;2.63;;;2.00;;
82920;SDS011;72696;52.372;9.722;2024-02-14T00:23:18;3.42;;;2.10;;
82920;SDS011;72696;52.372;9.722;2024-02-14T00:25:43;4.25;;;2.17;;
82920;SDS011;72696;52.372;9.722;2024-02-14T00:28:09;3.28;;;1.90;;
82920;SDS011;72696;52.372;9.722;2024-02-14T00:30:34;3.53;;;2.20;;
82920;SDS011;72696;52.372;9.722;2024-02-14T00:32:59;4.20;;;2.03;;
82920;SDS011;72696;52.372;9.722;2024-02-14T00:35:25;3.10;;;2.00;;
82920;SDS011;72696;52.372;9.722;2024-02-14T00:37:50;2.80;;;2.00;;
82920;SDS011;72696;52.372;9.722;2024-02-14T00:40:17;3.95;;;1.90;;
82920;SDS011;72696;52.372;9.722;2024-02-14T00:42:43;3.90;;;2.10;;
82920;SDS011;72696;52.372;9.722;2024-02-14T00:45:08;2.92;;;1.90;;
82920;SDS011;72696;52.372;9.722;2024-02-14T00:47:34;4.60;;;2.13;;
82920;SDS011;72696;52.372;9.722;2024-02-14T00:49:59;5.30;;;2.25;;
82920;SDS011;72696;52.372;9.722;2024-02-14T00:52:25;4.05;;;2.20;;
82920;SDS011;72696;52.372;9.722;2024-02-14T00:54:50;2.80;;;2.03;;
82920;SDS011;72696;52.372;9.722;2024-02-14T00:57:16;4.65;;;2.17;;
82920;SDS011;72696;52.372;9.722;2024-02-14T00:59:42;2.88;;;2.00;;
82920;SDS011;72696;52.372;9.722;2024-02-14T01:02:08;3.95;;;2.20;;
82920;SDS011;72696;52.372;9.722;2024-02-14T01:04:33;3.63;;;2.05;;
82920;SDS011;72696;52.372;9.722;2024-02-14T01:07:01;4.03;;;2.22;;
82920;SDS011;72696;52.372;9.722;2024-02-14T01:09:27;3.47;;;1.95;;
82920;SDS011;72696;52.372;9.722;2024-02-14T01:11:52;4.40;;;2.22;;
82920;SDS011;72696;52.372;9.722;2024-02-14T01:14:17;3.45;;;2.40;;
82920;SDS011;72696;52.372;9.722;2024-02-14T01:16:46;4.47;;;2.50;;
82920;SDS011;72696;52.372;9.722;2024-02-14T01:19:11;3.75;;;2.30;;
82920;SDS011;72696;52.372;9.722;2024-02-14T01:21:37;3.22;;;2.45;;
82920;SDS011;72696;52.372;9.722;2024-02-14T01:24:02;3.33;;;2.33;;
82920;SDS011;72696;52.372;9.722;2024-02-14T01:26:30;4.43;;;2.35;;
82920;SDS011;72696;52.372;9.722;2024-02-14T01:28:55;3.10;;;2.35;;
82920;SDS011;72696;52.372;9.722;2024-02-14T01:31:21;5.20;;;2.20;;
82920;SDS011;72696;52.372;9.722;2024-02-14T01:33:47;4.82;;;2.50;;
82920;SDS011;72696;52.372;9.722;2024-02-14T01:36:12;3.05;;;2.20;;
82920;SDS011;72696;52.372;9.722;2024-02-14T01:38:38;3.83;;;2.53;;
82920;SDS011;72696;52.372;9.722;2024-02-14T01:41:04;3.78;;;2.40;;
82920;SDS011;72696;52.372;9.722;2024-02-14T01:43:30;3.92;;;2.40;;
82920;SDS011;72696;52.372;9.722;2024-02-14T01:45:56;3.53;;;2.50;;
82920;SDS011;72696;52.372;9.722;2024-02-14T01:48:29;3.28;;;2.30;;
82920;SDS011;72696;52.372;9.722;2024-02-14T01:50:54;4.18;;;2.47;;
82920;SDS011;72696;52.372;9.722;2024-02-14T01:53:20;4.32;;;2.38;;
82920;SDS011;72696;52.372;9.722;2024-02-14T01:55:45;3.85;;;2.20;;
82920;SDS011;72696;52.372;9.722;2024-02-14T01:58:10;5.15;;;2.70;;
82920;SDS011;72696;52.372;9.722;2024-02-14T02:00:36;3.97;;;2.28;;
82920;SDS011;72696;52.372;9.722;2024-02-14T02:03:02;3.08;;;2.13;;
82920;SDS011;72696;52.372;9.722;2024-02-14T02:05:27;3.20;;;2.10;;
82920;SDS011;72696;52.372;9.722;2024-02-14T02:07:53;3.90;;;2.30;;
82920;SDS011;72696;52.372;9.722;2024-02-14T02:10:19;3.35;;;2.10;;
82920;SDS011;72696;52.372;9.722;2024-02-14T02:12:46;3.28;;;2.40;;
82920;SDS011;72696;52.372;9.722;2024-02-14T02:15:11;3.72;;;2.60;;
82920;SDS011;72696;52.372;9.722;2024-02-14T02:17:40;3.80;;;2.70;;
82920;SDS011;72696;52.372;9.722;2024-02-14T02:20:05;4.57;;;2.63;;
82920;SDS011;72696;52.372;9.722;2024-02-14T02:22:34;4.40;;;2.22;;
82920;SDS011;72696;52.372;9.722;2024-02-14T02:25:02;3.75;;;2.15;;
82920;SDS011;72696;52.372;9.722;2024-02-14T02:27:28;4.45;;;2.50;;
82920;SDS011;72696;52.372;9.722;2024-02-14T02:29:53;5.50;;;2.85;;
82920;SDS011;72696;52.372;9.722;2024-02-14T02:32:19;3.00;;;2.35;;
82920;SDS011;72696;52.372;9.722;2024-02-14T02:34:44;3.85;;;2.60;;
82920;SDS011;72696;52.372;9.722;2024-02-14T02:37:10;2.72;;;2.00;;
82920;SDS011;72696;52.372;9.722;2024-02-14T02:39:36;3.70;;;2.20;;
82920;SDS011;72696;52.372;9.722;2024-02-14T02:42:02;4.03;;;2.53;;
82920;SDS011;72696;52.372;9.722;2024-02-14T02:44:28;3.95;;;2.80;;
82920;SDS011;72696;52.372;9.722;2024-02-14T02:46:54;3.38;;;2.70;;
82920;SDS011;72696;52.372;9.722;2024-02-14T02:49:20;4.28;;;2.60;;
82920;SDS011;72696;52.372;9.722;2024-02-14T02:51:46;4.03;;;2.65;;
82920;SDS011;72696;52.372;9.722;2024-02-14T02:54:11;4.40;;;2.70;;
82920;SDS011;72696;52.372;9.722;2024-02-14T02:56:37;4.30;;;2.55;;
82920;SDS011;72696;52.372;9.722;2024-02-14T02:59:02;5.20;;;2.83;;
82920;SDS011;72696;52.372;9.722;2024-02-14T03:01:28;4.60;;;2.50;;
82920;SDS011;72696;52.372;9.722;2024-02-14T03:03:55;5.20;;;2.92;;
82920;SDS011;72696;52.372;9.722;2024-02-14T03:06:21;5.03;;;2.95;;
82920;SDS011;72696;52.372;9.722;2024-02-14T03:08:46;4.82;;;2.95;;
82920;SDS011;72696;52.372;9.722;2024-02-14T03:11:14;6.18;;;3.42;;
82920;SDS011;72696;52.372;9.722;2024-02-14T03:13:40;5.85;;;3.78;;
82920;SDS011;72696;52.372;9.722;2024-02-14T03:16:06;5.25;;;3.03;;
82920;SDS011;72696;52.372;9.722;2024-02-14T03:18:32;6.40;;;3.35;;
82920;SDS011;72696;52.372;9.722;2024-02-14T03:20:57;4.90;;;3.08;;
82920;SDS011;72696;52.372;9.722;2024-02-14T03:23:23;5.93;;;3.20;;
82920;SDS011;72696;52.372;9.722;2024-02-14T03:25:48;6.70;;;3.78;;
82920;SDS011;72696;52.372;9.722;2024-02-14T03:28:13;4.57;;;2.95;;
82920;SDS011;72696;52.372;9.722;2024-02-14T03:30:39;3.55;;;2.80;;
82920;SDS011;72696;52.372;9.722;2024-02-14T03:33:05;5.53;;;2.92;;
82920;SDS011;72696;52.372;9.722;2024-02-14T03:35:32;4.55;;;2.92;;
82920;SDS011;72696;52.372;9.722;2024-02-14T03:37:59;5.00;;;3.10;;
82920;SDS011;72696;52.372;9.722;2024-02-14T03:40:26;3.50;;;2.67;;
82920;SDS011;72696;52.372;9.722;2024-02-14T03:42:51;4.25;;;3.00;;
82920;SDS011;72696;52.372;9.722;2024-02-14T03:45:18;6.38;;;3.05;;
82920;SDS011;72696;52.372;9.722;2024-02-14T03:47:43;5.10;;;3.05;;
82920;SDS011;72696;52.372;9.722;2024-02-14T03:50:09;5.55;;;3.40;;
82920;SDS011;72696;52.372;9.722;2024-02-14T03:52:34;5.05;;;3.17;;
82920;SDS011;72696;52.372;9.722;2024-02-14T03:55:00;5.22;;;3.00;;
82920;SDS011;72696;52.372;9.722;2024-02-14T03:57:26;5.75;;;3.30;;
82920;SDS011;72696;52.372;9.722;2024-02-14T03:59:55;8.30;;;3.40;;
82920;SDS011;72696;52.372;9.722;2024-02-14T04:02:21;6.40;;;2.83;;
82920;SDS011;72696;52.372;9.722;2024-02-14T04:04:48;4.28;;;2.65;;
82920;SDS011;72696;52.372;9.722;2024-02-14T04:07:13;6.65;;;3.50;;
82920;SDS011;72696;52.372;9.722;2024-02-14T04:09:39;4.00;;;2.78;;
82920;SDS011;72696;52.372;9.722;2024-02-14T04:12:04;4.65;;;3.17;;
82920;SDS011;72696;52.372;9.722;2024-02-14T04:14:30;5.50;;;3.22;;
82920;SDS011;72696;52.372;9.722;2024-02-14T04:16:56;5.82;;;3.15;;
82920;SDS011;72696;52.372;9.722;2024-02-14T04:19:21;5.65;;;3.20;;
82920;SDS011;72696;52.372;9.722;2024-02-14T04:21:46;4.35;;;2.97;;
82920;SDS011;72696;52.372;9.722;2024-02-14T04:24:12;6.00;;;2.80;;
82920;SDS011;72696;52.372;9.722;2024-02-14T04:26:37;5.53;;;3.05;;
82920;SDS011;72696;52.372;9.722;2024-02-14T04:29:03;4.10;;;2.70;;
82920;SDS011;72696;52.372;9.722;2024-02-14T04:31:28;7.55;;;2.90;;
82920;SDS011;72696;52.372;9.722;2024-02-14T04:33:57;4.00;;;2.38;;
82920;SDS011;72696;52.372;9.722;2024-02-14T04:36:22;4.55;;;2.58;;
82920;SDS011;72696;52.372;9.722;2024-02-14T04:38:48;5.38;;;2.85;;
82920;SDS011;72696;52.372;9.722;2024-02-14T04:41:14;5.38;;;2.85;;
82920;SDS011;72696;52.372;9.722;2024-02-14T04:43:40;5.40;;;3.20;;
82920;SDS011;72696;52.372;9.722;2024-02-14T04:46:05;5.72;;;3.00;;
82920;SDS011;72696;52.372;9.722;2024-02-14T04:48:35;5.00;;;3.17;;
82920;SDS011;72696;52.372;9.722;2024-02-14T04:51:01;7.47;;;3.60;;
82920;SDS011;72696;52.372;9.722;2024-02-14T04:53:27;5.18;;;3.10;;
82920;SDS011;72696;52.372;9.722;2024-02-14T04:55:52;3.75;;;2.80;;
82920;SDS011;72696;52.372;9.722;2024-02-14T04:58:18;4.30;;;2.80;;
82920;SDS011;72696;52.372;9.722;2024-02-14T05:00:44;4.85;;;2.60;;
82920;SDS011;72696;52.372;9.722;2024-02-14T05:03:09;4.18;;;2.53;;
82920;SDS011;72696;52.372;9.722;2024-02-14T05:05:35;4.10;;;2.90;;
82920;SDS011;72696;52.372;9.722;2024-02-14T05:08:00;3.65;;;2.58;;
82920;SDS011;72696;52.372;9.722;2024-02-14T05:10:27;7.63;;;3.08;;
82920;SDS011;72696;52.372;9.722;2024-02-14T05:12:53;4.40;;;2.65;;
82920;SDS011;72696;52.372;9.722;2024-02-14T05:15:19;4.35;;;3.15;;
82920;SDS011;72696;52.372;9.722;2024-02-14T05:17:44;6.18;;;3.13;;
82920;SDS011;72696;52.372;9.722;2024-02-14T05:20:10;4.30;;;2.85;;
82920;SDS011;72696;52.372;9.722;2024-02-14T05:22:36;4.07;;;2.78;;
82920;SDS011;72696;52.372;9.722;2024-02-14T05:25:02;4.10;;;3.10;;
82920;SDS011;72696;52.372;9.722;2024-02-14T05:27:29;5.18;;;3.22;;
82920;SDS011;72696;52.372;9.722;2024-02-14T05:29:54;4.30;;;2.70;;
82920;SDS011;72696;52.372;9.722;2024-02-14T05:32:20;4.47;;;2.58;;
82920;SDS011;72696;52.372;9.722;2024-02-14T05:34:45;3.85;;;2.70;;
82920;SDS011;72696;52.372;9.722;2024-02-14T05:37:11;4.82;;;2.88;;
82920;SDS011;72696;52.372;9.722;2024-02-14T05:39:36;5.97;;;2.80;;
82920;SDS011;72696;52.372;9.722;2024-02-14T05:42:01;4.97;;;2.78;;
82920;SDS011;72696;52.372;9.722;2024-02-14T05:44:27;3.55;;;2.67;;
82920;SDS011;72696;52.372;9.722;2024-02-14T05:46:55;4.50;;;2.78;;
82920;SDS011;72696;52.372;9.722;2024-02-14T05:49:21;4.85;;;3.10;;
82920;SDS011;72696;52.372;9.722;2024-02-14T05:51:46;4.43;;;3.05;;
82920;SDS011;72696;52.372;9.722;2024-02-14T05:54:12;5.72;;;3.17;;
82920;SDS011;72696;52.372;9.722;2024-02-14T05:56:37;4.07;;;2.85;;
82920;SDS011;72696;52.372;9.722;2024-02-14T05:59:02;4.10;;;2.60;;
82920;SDS011;72696;52.372;9.722;2024-02-14T06:01:28;5.32;;;2.95;;
82920;SDS011;72696;52.372;9.722;2024-02-14T06:03:53;4.85;;;3.10;;
82920;SDS011;72696;52.372;9.722;2024-02-14T06:06:19;4.75;;;3.13;;
82920;SDS011;72696;52.372;9.722;2024-02-14T06:08:44;4.20;;;2.83;;
82920;SDS011;72696;52.372;9.722;2024-02-14T06:11:09;3.25;;;2.53;;
82920;SDS011;72696;52.372;9.722;2024-02-14T06:13:35;4.45;;;2.80;;
82920;SDS011;72696;52.372;9.722;2024-02-14T06:16:03;6.45;;;2.83;;
82920;SDS011;72696;52.372;9.722;2024-02-14T06:18:28;4.15;;;2.90;;
82920;SDS011;72696;52.372;9.722;2024-02-14T06:20:54;4.43;;;2.60;;
82920;SDS011;72696;52.372;9.722;2024-02-14T06:23:19;4.15;;;2.75;;
82920;SDS011;72696;52.372;9.722;2024-02-14T06:25:44;6.72;;;2.95;;
82920;SDS011;72696;52.372;9.722;2024-02-14T06:28:10;3.45;;;2.58;;
82920;SDS011;72696;52.372;9.722;2024-02-14T06:30:35;4.55;;;2.60;;
82920;SDS011;72696;52.372;9.722;2024-02-14T06:33:00;4.10;;;2.80;;
82920;SDS011;72696;52.372;9.722;2024-02-14T06:35:27;4.10;;;2.85;;
82920;SDS011;72696;52.372;9.722;2024-02-14T06:37:53;3.88;;;2.53;;
82920;SDS011;72696;52.372;9.722;2024-02-14T06:40:19;6.15;;;3.13;;
82920;SDS011;72696;52.372;9.722;2024-02-14T06:42:44;4.13;;;2.58;;
82920;SDS011;72696;52.372;9.722;2024-02-14T06:45:09;5.28;;;3.53;;
82920;SDS011;72696;52.372;9.722;2024-02-14T06:47:35;4.80;;;2.95;;
82920;SDS011;72696;52.372;9.722;2024-02-14T06:50:00;4.43;;;2.92;;
82920;SDS011;72696;52.372;9.722;2024-02-14T06:52:26;6.22;;;3.00;;
82920;SDS011;72696;52.372;9.722;2024-02-14T06:54:51;3.97;;;2.75;;
82920;SDS011;72696;52.372;9.722;2024-02-14T06:57:16;4.45;;;2.70;;
82920;SDS011;72696;52.372;9.722;2024-02-14T06:59:42;4.80;;;2.85;;
82920;SDS011;72696;52.372;9.722;2024-02-14T07:02:08;3.80;;;2.53;;
82920;SDS011;72696;52.372;9.722;2024-02-14T07:04:33;5.00;;;3.25;;
82920;SDS011;72696;52.372;9.722;2024-02-14T07:06:58;3.88;;;2.58;;
82920;SDS011;72696;52.372;9.722;2024-02-14T07:09:25;3.72;;;2.47;;
82920;SDS011;72696;52.372;9.722;2024-02-14T07:11:51;4.18;;;3.03;;
82920;SDS011;72696;52.372;9.722;2024-02-14T07:14:18;5.07;;;2.63;;
82920;SDS011;72696;52.372;9.722;2024-02-14T07:16:44;4.97;;;2.53;;
82920;SDS011;72696;52.372;9.722;2024-02-14T07:19:09;4.45;;;2.45;;
82920;SDS011;72696;52.372;9.722;2024-02-14T07:21:34;3.47;;;2.60;;
82920;SDS011;72696;52.372;9.722;2024-02-14T07:24:02;4.95;;;2.50;;
82920;SDS011;72696;52.372;9.722;2024-02-14T07:26:29;2.90;;;2.10;;
82920;SDS011;72696;52.372;9.722;2024-02-14T07:28:54;3.58;;;2.50;;
82920;SDS011;72696;52.372;9.722;2024-02-14T07:31:19;3.65;;;2.20;;
82920;SDS011;72696;52.372;9.722;2024-02-14T07:33:45;4.10;;;2.15;;
82920;SDS011;72696;52.372;9.722;2024-02-14T07:36:11;4.32;;;2.80;;
82920;SDS011;72696;52.372;9.722;2024-02-14T07:38:37;3.67;;;2.60;;
82920;SDS011;72696;52.372;9.722;2024-02-14T07:41:02;5.20;;;2.50;;
82920;SDS011;72696;52.372;9.722;2024-02-14T07:43:27;2.90;;;2.20;;
82920;SDS011;72696;52.372;9.722;2024-02-14T07:45:53;3.13;;;2.42;;
82920;SDS011;72696;52.372;9.722;2024-02-14T07:48:18;4.50;;;2.40;;
82920;SDS011;72696;52.372;9.722;2024-02-14T07:50:44;3.50;;;2.45;;
82920;SDS011;72696;52.372;9.722;2024-02-14T07:53:09;3.40;;;2.50;;
82920;SDS011;72696;52.372;9.722;2024-02-14T07:55:34;2.90;;;2.17;;
82920;SDS011;72696;52.372;9.722;2024-02-14T07:58:00;2.97;;;2.10;;
82920;SDS011;72696;52.372;9.722;2024-02-14T08:00:25;3.42;;;2.22;;
82920;SDS011;72696;52.372;9.722;2024-02-14T08:02:51;3.70;;;2.30;;
82920;SDS011;72696;52.372;9.722;2024-02-14T08:05:16;4.70;;;2.30;;
82920;SDS011;72696;52.372;9.722;2024-02-14T08:07:42;3.03;;;2.20;;
82920;SDS011;72696;52.372;9.722;2024-02-14T08:10:08;4.07;;;2.10;;
82920;SDS011;72696;52.372;9.722;2024-02-14T08:12:33;2.72;;;2.08;;
82920;SDS011;72696;52.372;9.722;2024-02-14T08:14:59;2.70;;;2.15;;
82920;SDS011;72696;52.372;9.722;2024-02-14T08:17:29;2.15;;;1.80;;
82920;SDS011;72696;52.372;9.722;2024-02-14T08:19:54;2.47;;;2.10;;
82920;SDS011;72696;52.372;9.722;2024-02-14T08:22:20;3.10;;;1.83;;
82920;SDS011;72696;52.372;9.722;2024-02-14T08:24:45;2.08;;;1.73;;
82920;SDS011;72696;52.372;9.722;2024-02-14T08:27:11;4.05;;;1.90;;
82920;SDS011;72696;52.372;9.722;2024-02-14T08:29:36;2.80;;;1.60;;
82920;SDS011;72696;52.372;9.722;2024-02-14T08:32:01;2.70;;;1.80;;
82920;SDS011;72696;52.372;9.722;2024-02-14T08:34:28;3.55;;;2.28;;
82920;SDS011;72696;52.372;9.722;2024-02-14T08:36:54;2.10;;;1.73;;
82920;SDS011;72696;52.372;9.722;2024-02-14T08:39:19;3.05;;;1.80;;
82920;SDS011;72696;52.372;9.722;2024-02-14T08:41:45;2.20;;;1.52;;
82920;SDS011;72696;52.372;9.722;2024-02-14T08:44:12;2.90;;;1.70;;
82920;SDS011;72696;52.372;9.722;2024-02-14T08:46:37;2.40;;;1.90;;
82920;SDS011;72696;52.372;9.722;2024-02-14T08:49:04;1.90;;;1.52;;
82920;SDS011;72696;52.372;9.722;2024-02-14T08:51:34;2.75;;;1.80;;
82920;SDS011;72696;52.372;9.722;2024-02-14T08:54:00;2.28;;;1.70;;
82920;SDS011;72696;52.372;9.722;2024-02-14T08:56:29;2.88;;;1.80;;
82920;SDS011;72696;52.372;9.722;2024-02-14T08:58:57;1.80;;;1.70;;
82920;SDS011;72696;52.372;9.722;2024-02-14T09:01:23;2.70;;;1.88;;
82920;SDS011;72696;52.372;9.722;2024-02-14T09:03:48;2.50;;;1.88;;
82920;SDS011;72696;52.372;9.722;2024-02-14T09:06:14;2.13;;;1.75;;
82920;SDS011;72696;52.372;9.722;2024-02-14T09:08:40;2.13;;;1.80;;
82920;SDS011;72696;52.372;9.722;2024-02-14T09:11:06;2.80;;;2.03;;
82920;SDS011;72696;52.372;9.722;2024-02-14T09:13:31;2.20;;;1.73;;
82920;SDS011;72696;52.372;9.722;2024-02-14T09:15:57;2.88;;;2.00;;
82920;SDS011;72696;52.372;9.722;2024-02-14T09:18:22;3.78;;;2.70;;
82920;SDS011;72696;52.372;9.722;2024-02-14T09:20:49;3.50;;;2.65;;
82920;SDS011;72696;52.372;9.722;2024-02-14T09:23:15;5.32;;;3.10;;
82920;SDS011;72696;52.372;9.722;2024-02-14T09:25:44;4.72;;;3.28;;
82920;SDS011;72696;52.372;9.722;2024-02-14T09:28:09;4.82;;;3.63;;
82920;SDS011;72696;52.372;9.722;2024-02-14T09:30:35;5.05;;;3.58;;
82920;SDS011;72696;52.372;9.722;2024-02-14T09:33:00;4.90;;;3.72;;
82920;SDS011;72696;52.372;9.722;2024-02-14T09:35:25;4.60;;;3.58;;
82920;SDS011;72696;52.372;9.722;2024-02-14T09:37:51;5.70;;;3.95;;
82920;SDS011;72696;52.372;9.722;2024-02-14T09:40:16;5.28;;;3.90;;
82920;SDS011;72696;52.372;9.722;2024-02-14T09:42:48;6.10;;;4.10;;
82920;SDS011;72696;52.372;9.722;2024-02-14T09:45:18;6.43;;;4.13;;
82920;SDS011;72696;52.372;9.722;2024-02-14T09:47:44;4.95;;;4.25;;
82920;SDS011;72696;52.372;9.722;2024-02-14T09:50:10;5.30;;;4.03;;
82920;SDS011;72696;52.372;9.722;2024-02-14T09:52:37;5.43;;;4.30;;
82920;SDS011;72696;52.372;9.722;2024-02-14T09:55:03;7.57;;;4.35;;
82920;SDS011;72696;52.372;9.722;2024-02-14T09:57:30;5.45;;;4.28;;
82920;SDS011;72696;52.372;9.722;2024-02-14T09:59:56;6.72;;;4.25;;
82920;SDS011;72696;52.372;9.722;2024-02-14T10:02:21;5.07;;;4.30;;
82920;SDS011;72696;52.372;9.722;2024-02-14T10:04:47;6.15;;;4.32;;
82920;SDS011;72696;52.372;9.722;2024-02-14T10:07:13;6.38;;;4.70;;
82920;SDS011;72696;52.372;9.722;2024-02-14T10:09:42;5.85;;;4.80;;
82920;SDS011;72696;52.372;9.722;2024-02-14T10:12:07;5.28;;;4.45;;
82920;SDS011;72696;52.372;9.722;2024-02-14T10:14:36;5.60;;;4.30;;
82920;SDS011;72696;52.372;9.722;2024-02-14T10:17:02;4.97;;;4.07;;
82920;SDS011;72696;52.372;9.722;2024-02-14T10:19:28;5.78;;;4.53;;
82920;SDS011;72696;52.372;9.722;2024-02-14T10:22:00;4.68;;;3.75;;
82920;SDS011;72696;52.372;9.722;2024-02-14T10:24:28;5.97;;;4.07;;
82920;SDS011;72696;52.372;9.722;2024-02-14T10:26:56;5.43;;;4.00;;
82920;SDS011;72696;52.372;9.722;2024-02-14T10:29:22;7.75;;;4.35;;
82920;SDS011;72696;52.372;9.722;2024-02-14T10:31:51;5.20;;;4.13;;
82920;SDS011;72696;52.372;9.722;2024-02-14T10:34:18;5.93;;;3.63;;
82920;SDS011;72696;52.372;9.722;2024-02-14T10:36:45;6.05;;;4.35;;
82920;SDS011;72696;52.372;9.722;2024-02-14T10:39:11;5.15;;;3.72;;
82920;SDS011;72696;52.372;9.722;2024-02-14T10:41:36;5.25;;;3.75;;
82920;SDS011;72696;52.372;9.722;2024-02-14T10:44:02;5.75;;;3.60;;
82920;SDS011;72696;52.372;9.722;2024-02-14T10:46:29;4.22;;;3.50;;
82920;SDS011;72696;52.372;9.722;2024-02-14T10:48:58;4.28;;;3.58;;
82920;SDS011;72696;52.372;9.722;2024-02-14T10:51:28;5.95;;;4.00;;
82920;SDS011;72696;52.372;9.722;2024-02-14T10:53:56;4.45;;;3.55;;
82920;SDS011;72696;52.372;9.722;2024-02-14T10:56:24;4.35;;;3.55;;
82920;SDS011;72696;52.372;9.722;2024-02-14T10:58:51;4.38;;;3.40;;
82920;SDS011;72696;52.372;9.722;2024-02-14T11:01:22;4.25;;;3.28;;
82920;SDS011;72696;52.372;9.722;2024-02-14T11:03:50;4.53;;;3.53;;
82920;SDS011;72696;52.372;9.722;2024-02-14T11:06:16;6.00;;;3.70;;
82920;SDS011;72696;52.372;9.722;2024-02-14T11:08:57;5.47;;;3.45;;
82920;SDS011;72696;52.372;9.722;2024-02-14T11:11:24;5.32;;;3.80;;
82920;SDS011;72696;52.372;9.722;2024-02-14T11:13:53;4.72;;;3.67;;
82920;SDS011;72696;52.372;9.722;2024-02-14T11:16:30;7.00;;;3.95;;
82920;SDS011;72696;52.372;9.722;2024-02-14T11:19:07;4.15;;;3.47;;
82920;SDS011;72696;52.372;9.722;2024-02-14T11:21:41;4.68;;;3.95;;
82920;SDS011;72696;52.372;9.722;2024-02-14T11:24:10;6.40;;;3.90;;
82920;SDS011;72696;52.372;9.722;2024-02-14T11:26:46;4.30;;;3.15;;
82920;SDS011;72696;52.372;9.722;2024-02-14T11:29:15;4.90;;;3.35;;
82920;SDS011;72696;52.372;9.722;2024-02-14T11:31:41;4.57;;;3.60;;
82920;SDS011;72696;52.372;9.722;2024-02-14T11:34:08;5.40;;;3.72;;
82920;SDS011;72696;52.372;9.722;2024-02-14T11:36:35;5.55;;;3.22;;
82920;SDS011;72696;52.372;9.722;2024-02-14T11:39:04;5.10;;;4.10;;
82920;SDS011;72696;52.372;9.722;2024-02-14T11:41:33;5.00;;;3.67;;
82920;SDS011;72696;52.372;9.722;2024-02-14T11:44:05;5.25;;;3.30;;
82920;SDS011;72696;52.372;9.722;2024-02-14T11:46:31;4.45;;;3.80;;
82920;SDS011;72696;52.372;9.722;2024-02-14T11:48:57;5.57;;;3.83;;
82920;SDS011;72696;52.372;9.722;2024-02-14T11:51:26;5.60;;;4.25;;
82920;SDS011;72696;52.372;9.722;2024-02-14T11:53:52;4.88;;;3.60;;
82920;SDS011;72696;52.372;9.722;2024-02-14T11:56:18;5.43;;;4.35;;
82920;SDS011;72696;52.372;9.722;2024-02-14T11:58:43;5.55;;;3.72;;
82920;SDS011;72696;52.372;9.722;2024-02-14T12:01:08;4.95;;;3.83;;
82920;SDS011;72696;52.372;9.722;2024-02-14T12:03:34;6.00;;;4.65;;
82920;SDS011;72696;52.372;9.722;2024-02-14T12:06:00;5.35;;;3.80;;
82920;SDS011;72696;52.372;9.722;2024-02-14T12:08:28;5.43;;;3.58;;
82920;SDS011;72696;52.372;9.722;2024-02-14T12:10:53;6.53;;;4.10;;
82920;SDS011;72696;52.372;9.722;2024-02-14T12:13:22;4.82;;;3.92;;
82920;SDS011;72696;52.372;9.722;2024-02-14T12:15:48;7.72;;;4.03;;
82920;SDS011;72696;52.372;9.722;2024-02-14T12:18:15;6.05;;;4.22;;
82920;SDS011;72696;52.372;9.722;2024-02-14T12:20:43;6.28;;;4.30;;
82920;SDS011;72696;52.372;9.722;2024-02-14T12:23:13;5.93;;;4.63;;
82920;SDS011;72696;52.372;9.722;2024-02-14T12:25:39;6.20;;;4.53;;
82920;SDS011;72696;52.372;9.722;2024-02-14T12:28:05;5.80;;;4.57;;
82920;SDS011;72696;52.372;9.722;2024-02-14T12:30:44;4.82;;;4.00;;
82920;SDS011;72696;52.372;9.722;2024-02-14T12:33:14;5.35;;;4.45;;
82920;SDS011;72696;52.372;9.722;2024-02-14T12:35:46;6.47;;;4.93;;
82920;SDS011;72696;52.372;9.722;2024-02-14T12:38:13;6.43;;;4.70;;
82920;SDS011;72696;52.372;9.722;2024-02-14T12:40:40;6.90;;;4.80;;
82920;SDS011;72696;52.372;9.722;2024-02-14T12:43:12;7.15;;;4.88;;
82920;SDS011;72696;52.372;9.722;2024-02-14T12:45:39;6.88;;;5.13;;
82920;SDS011;72696;52.372;9.722;2024-02-14T12:48:05;6.28;;;5.30;;
82920;SDS011;72696;52.372;9.722;2024-02-14T12:50:33;6.55;;;4.90;;
82920;SDS011;72696;52.372;9.722;2024-02-14T12:52:59;6.55;;;5.20;;
82920;SDS011;72696;52.372;9.722;2024-02-14T12:55:25;6.40;;;4.85;;
82920;SDS011;72696;52.372;9.722;2024-02-14T12:57:53;7.47;;;5.00;;
82920;SDS011;72696;52.372;9.722;2024-02-14T13:00:22;7.47;;;5.38;;
82920;SDS011;72696;52.372;9.722;2024-02-14T13:02:48;6.72;;;5.25;;
82920;SDS011;72696;52.372;9.722;2024-02-14T13:05:15;8.50;;;5.50;;
82920;SDS011;72696;52.372;9.722;2024-02-14T13:07:43;7.78;;;5.35;;
82920;SDS011;72696;52.372;9.722;2024-02-14T13:10:09;6.47;;;5.30;;
82920;SDS011;72696;52.372;9.722;2024-02-14T13:12:38;5.30;;;4.57;;
82920;SDS011;72696;52.372;9.722;2024-02-14T13:15:09;5.82;;;4.97;;
82920;SDS011;72696;52.372;9.722;2024-02-14T13:17:35;7.25;;;5.10;;
82920;SDS011;72696;52.372;9.722;2024-02-14T13:20:00;7.57;;;5.53;;
82920;SDS011;72696;52.372;9.722;2024-02-14T13:22:26;9.68;;;6.43;;
82920;SDS011;72696;52.372;9.722;2024-02-14T13:24:52;6.70;;;5.40;;
82920;SDS011;72696;52.372;9.722;2024-02-14T13:27:18;5.90;;;5.15;;
82920;SDS011;72696;52.372;9.722;2024-02-14T13:29:46;7.40;;;5.47;;
82920;SDS011;72696;52.372;9.722;2024-02-14T13:32:12;6.82;;;4.88;;
82920;SDS011;72696;52.372;9.722;2024-02-14T13:34:37;7.43;;;5.18;;
82920;SDS011;72696;52.372;9.722;2024-02-14T13:37:03;6.43;;;4.93;;
82920;SDS011;72696;52.372;9.722;2024-02-14T13:39:29;7.00;;;5.18;;
82920;SDS011;72696;52.372;9.722;2024-02-14T13:41:54;5.18;;;4.68;;
82920;SDS011;72696;52.372;9.722;2024-02-14T13:44:23;6.55;;;4.95;;
82920;SDS011;72696;52.372;9.722;2024-02-14T13:46:49;6.53;;;4.40;;
82920;SDS011;72696;52.372;9.722;2024-02-14T13:49:15;5.25;;;4.25;;
82920;SDS011;72696;52.372;9.722;2024-02-14T13:51:46;5.50;;;4.40;;
82920;SDS011;72696;52.372;9.722;2024-02-14T13:54:12;6.45;;;4.32;;
82920;SDS011;72696;52.372;9.722;2024-02-14T13:56:37;6.03;;;4.45;;
82920;SDS011;72696;52.372;9.722;2024-02-14T13:59:03;5.30;;;4.25;;
82920;SDS011;72696;52.372;9.722;2024-02-14T14:01:28;5.80;;;4.10;;
82920;SDS011;72696;52.372;9.722;2024-02-14T14:03:54;4.90;;;3.67;;
82920;SDS011;72696;52.372;9.722;2024-02-14T14:06:21;4.05;;;3.35;;
82920;SDS011;72696;52.372;9.722;2024-02-14T14:08:49;4.07;;;3.45;;
82920;SDS011;72696;52.372;9.722;2024-02-14T14:11:17;5.10;;;3.28;;
82920;SDS011;72696;52.372;9.722;2024-02-14T14:13:42;5.45;;;3.15;;
82920;SDS011;72696;52.372;9.722;2024-02-14T14:16:08;4.25;;;3.20;;
82920;SDS011;72696;52.372;9.722;2024-02-14T14:18:34;7.07;;;3.30;;
82920;SDS011;72696;52.372;9.722;2024-02-14T14:21:00;4.35;;;2.90;;
82920;SDS011;72696;52.372;9.722;2024-02-14T14:23:26;3.80;;;3.10;;
82920;SDS011;72696;52.372;9.722;2024-02-14T14:25:51;3.63;;;3.15;;
82920;SDS011;72696;52.372;9.722;2024-02-14T14:28:17;4.93;;;3.28;;
82920;SDS011;72696;52.372;9.722;2024-02-14T14:30:45;4.80;;;3.10;;
82920;SDS011;72696;52.372;9.722;2024-02-14T14:33:10;4.32;;;3.08;;
82920;SDS011;72696;52.372;9.722;2024-02-14T14:35:39;3.45;;;2.85;;
82920;SDS011;72696;52.372;9.722;2024-02-14T14:38:05;5.20;;;3.05;;
82920;SDS011;72696;52.372;9.722;2024-02-14T14:40:31;4.90;;;3.35;;
82920;SDS011;72696;52.372;9.722;2024-02-14T14:42:57;4.13;;;3.17;;